createdAt,value
2018-04-16T00:00:10.393Z,13.80
2018-04-16T00:02:36.637Z,13.90
2018-04-16T00:05:02.869Z,14.00
2018-04-16T00:07:29.899Z,14.10
2018-04-16T00:09:56.190Z,14.10
2018-04-16T00:12:22.411Z,14.20
2018-04-16T00:14:48.641Z,14.20
2018-04-16T00:17:14.900Z,14.20
2018-04-16T00:19:41.194Z,14.20
2018-04-16T00:22:07.478Z,14.20
2018-04-16T00:24:33.780Z,14.20
2018-04-16T00:27:00.003Z,14.20
2018-04-16T00:29:26.243Z,14.20
2018-04-16T00:31:58.661Z,14.20
2018-04-16T00:34:46.732Z,14.20
2018-04-16T00:37:19.036Z,14.20
2018-04-16T00:39:51.352Z,14.20
2018-04-16T00:42:23.748Z,14.20
2018-04-16T00:44:56.058Z,14.20
2018-04-16T00:47:28.465Z,14.20
2018-04-16T00:50:00.693Z,14.10
2018-04-16T00:52:32.963Z,14.10
2018-04-16T00:55:19.129Z,14.10
2018-04-16T00:57:51.401Z,14.00
2018-04-16T01:00:23.704Z,14.10
2018-04-16T01:02:57.921Z,13.90
2018-04-16T01:05:30.311Z,13.90
2018-04-16T01:11:05.608Z,13.50
2018-04-16T01:13:37.901Z,13.50
2018-04-16T01:16:10.245Z,13.30
2018-04-16T01:18:42.657Z,13.20
2018-04-16T01:21:14.959Z,13.20
2018-04-16T01:23:48.129Z,13.00
2018-04-16T01:26:21.352Z,13.00
2018-04-16T01:28:53.703Z,13.00
2018-04-16T01:31:26.928Z,13.00
2018-04-16T01:33:59.484Z,13.00
2018-04-16T01:36:31.990Z,13.00
2018-04-16T01:39:04.361Z,13.00
2018-04-16T01:44:34.967Z,13.00
2018-04-16T01:47:07.469Z,13.00
2018-04-16T01:49:39.993Z,13.00
2018-04-16T01:52:12.278Z,12.90
2018-04-16T01:54:45.396Z,12.80
2018-04-16T01:57:18.548Z,12.80
2018-04-16T01:59:52.479Z,12.80
2018-04-16T02:02:25.640Z,12.80
2018-04-16T02:04:58.027Z,12.80
2018-04-16T02:07:31.271Z,12.80
2018-04-16T02:10:03.586Z,12.80
2018-04-16T02:12:35.981Z,12.80
2018-04-16T02:15:20.322Z,12.80
2018-04-16T02:17:53.349Z,12.70
2018-04-16T02:20:25.616Z,12.70
2018-04-16T02:22:57.951Z,12.60
2018-04-16T02:25:31.071Z,12.70
2018-04-16T02:28:03.532Z,12.70
2018-04-16T02:30:36.009Z,12.70
2018-04-16T02:33:08.572Z,12.70
2018-04-16T02:35:40.744Z,12.80
2018-04-16T02:38:14.096Z,12.90
2018-04-16T02:40:46.418Z,12.80
2018-04-16T02:43:18.658Z,12.90
2018-04-16T02:45:50.993Z,12.90
2018-04-16T02:48:24.384Z,12.90
2018-04-16T02:50:56.665Z,12.80
2018-04-16T02:53:29.053Z,12.90
2018-04-16T02:56:01.295Z,12.90
2018-04-16T02:58:33.617Z,12.90
2018-04-16T03:01:06.592Z,12.90
2018-04-16T03:03:38.978Z,12.90
2018-04-16T03:06:12.009Z,12.90
2018-04-16T03:08:44.232Z,12.90
2018-04-16T03:11:17.304Z,12.90
2018-04-16T03:16:48.925Z,12.90
2018-04-16T03:19:21.288Z,12.90
2018-04-16T03:21:53.529Z,12.90
2018-04-16T03:24:27.394Z,13.10
2018-04-16T03:26:59.808Z,13.00
2018-04-16T03:29:45.829Z,13.10
2018-04-16T03:32:18.536Z,13.10
2018-04-16T03:34:50.952Z,13.10
2018-04-16T03:37:24.044Z,13.20
2018-04-16T03:39:57.155Z,13.20
2018-04-16T03:42:29.593Z,13.20
2018-04-16T03:45:02.018Z,13.20
2018-04-16T03:47:34.306Z,13.20
2018-04-16T03:50:06.688Z,13.20
2018-04-16T03:52:38.933Z,13.20
2018-04-16T03:55:11.229Z,13.20
2018-04-16T03:57:37.405Z,13.20
2018-04-16T04:00:03.672Z,13.30
2018-04-16T04:02:29.940Z,13.30
2018-04-16T04:04:56.924Z,13.40
2018-04-16T04:07:23.233Z,13.40
2018-04-16T04:09:49.470Z,13.40
2018-04-16T04:12:16.529Z,13.40
2018-04-16T04:14:42.763Z,13.40
2018-04-16T04:17:09.057Z,13.40
2018-04-16T04:19:35.284Z,13.40
2018-04-16T04:22:02.285Z,13.40
2018-04-16T04:24:40.903Z,13.40
2018-04-16T04:27:20.258Z,13.60
2018-04-16T04:29:59.013Z,13.50
2018-04-16T04:32:25.334Z,13.50
2018-04-16T04:34:51.913Z,13.50
2018-04-16T04:37:18.960Z,13.60
2018-04-16T04:39:45.178Z,13.50
2018-04-16T04:42:11.438Z,13.60
2018-04-16T04:44:37.708Z,13.50
2018-04-16T04:47:04.955Z,13.50
2018-04-16T04:49:31.919Z,13.50
2018-04-16T04:51:58.147Z,13.50
2018-04-16T04:54:24.401Z,13.60
2018-04-16T04:56:57.666Z,13.60
2018-04-16T04:59:24.205Z,13.60
2018-04-16T05:01:50.458Z,13.60
2018-04-16T05:04:16.752Z,13.60
2018-04-16T05:06:42.988Z,13.60
2018-04-16T05:09:09.224Z,13.60
2018-04-16T05:11:35.526Z,13.60
2018-04-16T05:14:01.940Z,13.60
2018-04-16T05:16:28.244Z,13.70
2018-04-16T05:18:55.227Z,13.70
2018-04-16T05:21:22.195Z,13.80
2018-04-16T05:23:48.453Z,13.80
2018-04-16T05:26:14.794Z,13.90
2018-04-16T05:28:41.110Z,13.90
2018-04-16T05:31:09.977Z,14.00
2018-04-16T05:33:36.269Z,14.00
2018-04-16T05:36:03.340Z,14.10
2018-04-16T05:38:29.628Z,14.10
2018-04-16T05:40:55.929Z,14.20
2018-04-16T05:43:22.176Z,14.20
2018-04-16T05:45:48.376Z,14.20
2018-04-16T05:48:14.609Z,14.30
2018-04-16T05:50:41.163Z,14.40
2018-04-16T05:53:07.527Z,14.50
2018-04-16T05:55:33.999Z,14.50
2018-04-16T05:58:00.284Z,14.60
2018-04-16T06:00:26.608Z,14.60
2018-04-16T06:02:53.594Z,14.70
2018-04-16T06:05:19.844Z,14.60
2018-04-16T06:07:46.121Z,14.60
2018-04-16T06:10:12.379Z,14.60
2018-04-16T06:12:38.720Z,14.70
2018-04-16T06:15:04.989Z,14.80
2018-04-16T06:17:31.250Z,15.00
2018-04-16T06:19:57.609Z,15.20
2018-04-16T06:22:23.924Z,15.40
2018-04-16T06:24:50.277Z,15.50
2018-04-16T06:27:16.686Z,15.60
2018-04-16T06:29:43.067Z,15.60
2018-04-16T06:32:09.383Z,15.70
2018-04-16T06:34:36.379Z,15.70
2018-04-16T06:37:02.731Z,15.60
2018-04-16T06:39:28.920Z,15.70
2018-04-16T06:41:55.879Z,15.60
2018-04-16T06:44:22.132Z,15.60
2018-04-16T06:46:48.455Z,15.50
2018-04-16T06:49:14.792Z,15.50
2018-04-16T06:51:41.056Z,15.60
2018-04-16T06:54:07.628Z,15.70
2018-04-16T06:56:33.949Z,15.80
2018-04-16T06:59:00.970Z,16.30
2018-04-16T07:01:27.231Z,16.20
2018-04-16T07:03:54.289Z,16.70
2018-04-16T07:06:21.275Z,16.90
2018-04-16T07:08:47.565Z,16.80
2018-04-16T07:11:13.913Z,17.20
2018-04-16T07:13:40.177Z,17.60
2018-04-16T07:16:06.447Z,17.90
2018-04-16T07:18:33.543Z,19.60
2018-04-16T07:20:59.772Z,19.60
2018-04-16T07:23:27.089Z,22.70
2018-04-16T07:25:53.673Z,22.70
2018-04-16T07:28:20.737Z,26.20
2018-04-16T07:30:46.965Z,26.10
2018-04-16T07:33:13.194Z,26.80
2018-04-16T07:35:39.543Z,25.90
2018-04-16T07:38:06.544Z,27.70
2018-04-16T07:40:32.761Z,27.60
2018-04-16T07:42:59.023Z,28.40
2018-04-16T07:45:26.121Z,27.90
2018-04-16T07:47:52.384Z,27.90
2018-04-16T07:50:18.612Z,26.60
2018-04-16T07:52:44.866Z,25.00
2018-04-16T07:55:12.576Z,22.70
2018-04-16T07:57:38.853Z,22.60
2018-04-16T08:00:05.115Z,21.80
2018-04-16T08:02:31.430Z,21.60
2018-04-16T08:04:58.466Z,23.40
2018-04-16T08:07:24.689Z,23.40
2018-04-16T08:09:50.948Z,23.90
2018-04-16T08:12:17.192Z,24.10
2018-04-16T08:17:37.460Z,23.50
2018-04-16T08:20:03.686Z,24.00
2018-04-16T08:22:29.898Z,24.70
2018-04-16T08:24:56.157Z,25.50
2018-04-16T08:27:23.164Z,26.60
2018-04-16T08:29:50.020Z,26.60
2018-04-16T08:32:16.581Z,27.20
2018-04-16T08:34:42.949Z,28.20
2018-04-16T08:37:09.233Z,29.40
2018-04-16T08:39:35.552Z,29.00
2018-04-16T08:42:02.552Z,26.90
2018-04-16T08:44:28.816Z,26.80
2018-04-16T08:46:55.078Z,27.20
2018-04-16T08:49:22.066Z,27.50
2018-04-16T08:51:48.329Z,27.50
2018-04-16T08:54:14.588Z,29.40
2018-04-16T08:56:40.852Z,30.10
2018-04-16T08:59:07.076Z,30.30
2018-04-16T09:01:33.349Z,30.20
2018-04-16T09:04:00.590Z,30.50
2018-04-16T09:06:26.960Z,32.30
2018-04-16T09:08:53.288Z,33.80
2018-04-16T09:11:19.557Z,33.90
2018-04-16T09:13:45.794Z,33.60
2018-04-16T09:16:12.167Z,34.40
2018-04-16T09:18:39.157Z,35.70
2018-04-16T09:21:06.152Z,35.00
2018-04-16T09:23:32.356Z,35.00
2018-04-16T09:25:58.577Z,34.90
2018-04-16T09:28:24.785Z,35.60
2018-04-16T09:30:51.024Z,33.90
2018-04-16T09:33:18.188Z,32.10
2018-04-16T09:35:44.421Z,29.90
2018-04-16T09:38:11.409Z,26.90
2018-04-16T09:40:37.613Z,26.80
2018-04-16T09:43:03.959Z,25.40
2018-04-16T09:45:30.920Z,24.50
2018-04-16T09:47:57.125Z,24.50
2018-04-16T09:50:24.132Z,24.50
2018-04-16T09:52:50.316Z,24.50
2018-04-16T09:55:17.243Z,24.80
2018-04-16T09:57:44.217Z,26.00
2018-04-16T10:00:10.481Z,25.90
2018-04-16T10:02:36.781Z,28.10
2018-04-16T10:05:03.839Z,27.00
2018-04-16T10:07:30.212Z,26.90
2018-04-16T10:09:57.234Z,26.00
2018-04-16T10:12:23.472Z,26.00
2018-04-16T10:14:49.733Z,25.20
2018-04-16T10:17:16.016Z,25.30
2018-04-16T10:19:42.241Z,25.00
2018-04-16T10:22:08.552Z,24.50
2018-04-16T10:24:34.760Z,24.60
2018-04-16T10:27:01.013Z,24.70
2018-04-16T10:29:27.245Z,24.90
2018-04-16T10:31:53.451Z,25.60
2018-04-16T10:34:19.712Z,26.10
2018-04-16T10:36:46.704Z,26.40
2018-04-16T10:39:13.676Z,26.40
2018-04-16T10:41:39.888Z,26.40
2018-04-16T10:44:06.133Z,26.30
2018-04-16T10:46:32.380Z,26.00
2018-04-16T10:48:58.568Z,25.70
2018-04-16T10:51:24.792Z,25.20
2018-04-16T10:53:51.745Z,24.70
2018-04-16T10:56:17.953Z,24.70
2018-04-16T10:58:44.909Z,25.40
2018-04-16T11:01:11.091Z,25.40
2018-04-16T11:03:37.322Z,24.40
2018-04-16T11:06:04.398Z,24.00
2018-04-16T11:08:31.461Z,23.40
2018-04-16T11:10:57.664Z,23.40
2018-04-16T11:13:24.677Z,22.60
2018-04-16T11:15:50.867Z,22.60
2018-04-16T11:18:17.053Z,22.90
2018-04-16T11:20:43.266Z,23.40
2018-04-16T11:23:09.515Z,22.90
2018-04-16T11:25:36.495Z,22.60
2018-04-16T11:28:02.779Z,22.60
2018-04-16T11:30:29.015Z,22.40
2018-04-16T11:32:55.965Z,22.20
2018-04-16T11:35:22.268Z,22.20
2018-04-16T11:37:48.520Z,22.10
2018-04-16T11:40:14.895Z,22.10
2018-04-16T11:42:41.167Z,22.10
2018-04-16T11:45:08.138Z,22.90
2018-04-16T11:47:34.508Z,22.90
2018-04-16T11:50:00.743Z,23.20
2018-04-16T11:52:26.978Z,23.40
2018-04-16T11:54:53.493Z,23.60
2018-04-16T11:57:19.751Z,23.80
2018-04-16T11:59:46.174Z,23.90
2018-04-16T12:02:12.459Z,23.50
2018-04-16T12:04:38.997Z,23.00
2018-04-16T12:07:05.199Z,23.10
2018-04-16T12:09:32.165Z,23.60
2018-04-16T12:11:58.376Z,23.60
2018-04-16T12:14:25.362Z,23.50
2018-04-16T12:16:51.591Z,23.50
2018-04-16T12:19:17.857Z,23.00
2018-04-16T12:21:44.147Z,22.70
2018-04-16T12:24:10.360Z,22.80
2018-04-16T12:26:36.611Z,22.80
2018-04-16T12:29:02.859Z,23.00
2018-04-16T12:31:29.101Z,23.40
2018-04-16T12:33:55.292Z,23.50
2018-04-16T12:36:21.492Z,23.60
2018-04-16T12:38:47.817Z,23.50
2018-04-16T12:41:14.758Z,22.70
2018-04-16T12:43:41.738Z,22.50
2018-04-16T12:46:07.966Z,22.50
2018-04-16T12:48:34.968Z,22.60
2018-04-16T12:51:01.929Z,22.40
2018-04-16T12:53:28.162Z,22.40
2018-04-16T12:55:54.361Z,22.70
2018-04-16T12:58:21.338Z,22.60
2018-04-16T13:00:48.795Z,22.40
2018-04-16T13:03:15.006Z,22.40
2018-04-16T13:05:41.967Z,22.90
2018-04-16T13:08:08.189Z,22.90
2018-04-16T13:10:35.235Z,23.40
2018-04-16T13:13:01.496Z,23.40
2018-04-16T13:15:27.762Z,23.70
2018-04-16T13:17:53.986Z,24.00
2018-04-16T13:20:20.974Z,23.90
2018-04-16T13:22:47.186Z,23.90
2018-04-16T13:25:14.172Z,23.80
2018-04-16T13:27:40.448Z,23.70
2018-04-16T13:30:07.438Z,23.20
2018-04-16T13:32:33.644Z,23.20
2018-04-16T13:34:59.951Z,22.70
2018-04-16T13:37:26.913Z,22.10
2018-04-16T13:39:53.113Z,22.10
2018-04-16T13:42:20.093Z,21.40
2018-04-16T13:44:46.344Z,21.40
2018-04-16T13:47:12.590Z,21.40
2018-04-16T13:49:38.801Z,21.40
2018-04-16T13:52:05.020Z,21.30
2018-04-16T13:54:31.234Z,21.50
2018-04-16T13:56:58.264Z,21.70
2018-04-16T13:59:24.545Z,21.70
2018-04-16T14:01:50.780Z,21.80
2018-04-16T14:04:17.025Z,21.70
2018-04-16T14:06:43.832Z,21.80
2018-04-16T14:09:10.892Z,21.80
2018-04-16T14:11:37.208Z,21.80
2018-04-16T14:14:03.632Z,22.00
2018-04-16T14:16:30.039Z,22.20
2018-04-16T14:18:56.252Z,22.30
2018-04-16T14:21:23.443Z,22.40
2018-04-16T14:23:49.676Z,22.40
2018-04-16T14:26:16.703Z,22.50
2018-04-16T14:28:43.028Z,22.70
2018-04-16T14:31:09.437Z,22.50
2018-04-16T14:33:36.415Z,22.20
2018-04-16T14:36:02.735Z,22.20
2018-04-16T14:38:30.860Z,22.10
2018-04-16T14:40:57.209Z,22.10
2018-04-16T14:43:23.438Z,22.10
2018-04-16T14:45:49.657Z,21.90
2018-04-16T14:48:16.877Z,21.50
2018-04-16T14:50:43.089Z,21.50
2018-04-16T14:53:09.530Z,21.40
2018-04-16T14:55:35.800Z,21.20
2018-04-16T14:58:02.816Z,21.30
2018-04-16T15:00:29.057Z,21.30
2018-04-16T15:02:56.085Z,21.60
2018-04-16T15:05:22.281Z,21.60
2018-04-16T15:07:48.486Z,21.60
2018-04-16T15:10:15.444Z,20.90
2018-04-16T15:12:41.730Z,20.90
2018-04-16T15:15:08.997Z,20.80
2018-04-16T15:17:35.363Z,20.80
2018-04-16T15:20:01.583Z,20.80
2018-04-16T15:22:28.748Z,20.60
2018-04-16T15:24:55.845Z,20.40
2018-04-16T15:27:22.381Z,20.40
2018-04-16T15:29:49.362Z,20.60
2018-04-16T15:32:15.596Z,20.60
2018-04-16T15:34:41.859Z,20.80
2018-04-16T15:37:08.218Z,20.90
2018-04-16T15:39:34.617Z,20.80
2018-04-16T15:42:00.947Z,20.40
2018-04-16T15:44:29.709Z,20.40
2018-04-16T15:46:55.922Z,20.40
2018-04-16T15:49:22.328Z,20.30
2018-04-16T15:51:50.666Z,20.00
2018-04-16T15:54:17.353Z,20.00
2018-04-16T15:56:44.396Z,20.00
2018-04-16T15:59:11.359Z,19.80
2018-04-16T16:01:37.612Z,19.80
2018-04-16T16:04:03.881Z,19.60
2018-04-16T16:06:30.851Z,19.40
2018-04-16T16:08:57.865Z,19.40
2018-04-16T16:11:24.885Z,19.40
2018-04-16T16:13:51.162Z,19.40
2018-04-16T16:16:18.169Z,19.70
2018-04-16T16:18:44.376Z,19.70
2018-04-16T16:21:10.634Z,19.90
2018-04-16T16:23:37.951Z,20.10
2018-04-16T16:26:04.422Z,20.10
2018-04-16T16:28:30.659Z,19.90
2018-04-16T16:30:56.943Z,19.90
2018-04-16T16:33:24.441Z,19.90
2018-04-16T16:35:50.702Z,19.90
2018-04-16T16:38:16.977Z,19.90
2018-04-16T16:40:43.212Z,19.80
2018-04-16T16:43:09.429Z,19.80
2018-04-16T16:45:35.669Z,19.90
2018-04-16T16:48:01.953Z,19.70
2018-04-16T16:50:28.193Z,19.60
2018-04-16T16:52:54.409Z,19.70
2018-04-16T16:55:20.619Z,19.70
2018-04-16T16:57:47.792Z,19.60
2018-04-16T17:00:14.070Z,19.60
2018-04-16T17:02:40.396Z,19.50
2018-04-16T17:05:06.640Z,19.30
2018-04-16T17:07:33.164Z,19.10
2018-04-16T17:09:59.549Z,19.10
2018-04-16T17:12:25.764Z,19.00
2018-04-16T17:14:51.968Z,18.90
2018-04-16T17:17:18.162Z,18.90
2018-04-16T17:19:44.388Z,18.90
2018-04-16T17:22:10.659Z,18.90
2018-04-16T17:24:36.977Z,19.00
2018-04-16T17:27:03.204Z,19.00
2018-04-16T17:29:30.204Z,19.10
2018-04-16T17:31:56.433Z,19.10
2018-04-16T17:34:22.662Z,19.00
2018-04-16T17:36:48.943Z,18.80
2018-04-16T17:39:15.241Z,18.70
2018-04-16T17:41:41.538Z,18.60
2018-04-16T17:44:08.606Z,18.50
2018-04-16T17:46:34.876Z,18.40
2018-04-16T17:49:01.153Z,18.30
2018-04-16T17:51:27.403Z,18.20
2018-04-16T17:53:53.707Z,18.10
2018-04-16T17:56:20.045Z,18.00
2018-04-16T17:58:46.282Z,18.00
2018-04-16T18:01:12.571Z,17.90
2018-04-16T18:03:38.938Z,17.70
2018-04-16T18:06:05.156Z,17.70
2018-04-16T18:08:31.526Z,17.60
2018-04-16T18:10:57.772Z,17.50
2018-04-16T18:13:24.021Z,17.30
2018-04-16T18:15:50.261Z,17.30
2018-04-16T18:18:16.511Z,17.20
2018-04-16T18:20:42.856Z,17.10
2018-04-16T18:23:09.055Z,17.00
2018-04-16T18:25:35.285Z,17.00
2018-04-16T18:28:03.047Z,16.80
2018-04-16T18:30:29.270Z,16.80
2018-04-16T18:32:55.505Z,16.70
2018-04-16T18:35:21.780Z,16.60
2018-04-16T18:37:48.835Z,16.50
2018-04-16T18:40:15.894Z,16.30
2018-04-16T18:42:42.136Z,16.30
2018-04-16T18:45:08.413Z,16.30
2018-04-16T18:47:34.671Z,16.20
2018-04-16T18:50:01.668Z,16.00
2018-04-16T18:52:27.911Z,16.00
2018-04-16T18:54:54.528Z,15.90
2018-04-16T18:57:20.881Z,15.80
2018-04-16T18:59:47.114Z,15.70
2018-04-16T19:02:13.359Z,15.70
2018-04-16T19:04:40.403Z,15.50
2018-04-16T19:07:06.619Z,15.50
2018-04-16T19:09:32.868Z,15.50
2018-04-16T19:11:59.158Z,15.50
2018-04-16T19:14:25.436Z,15.50
2018-04-16T19:16:51.750Z,15.50
2018-04-16T19:19:18.701Z,15.30
2018-04-16T19:21:51.752Z,15.20
2018-04-16T19:24:18.044Z,15.20
2018-04-16T19:26:50.382Z,15.20
2018-04-16T19:29:17.332Z,15.10
2018-04-16T19:31:44.303Z,15.00
2018-04-16T19:34:16.532Z,14.90
2018-04-16T19:36:42.844Z,14.90
2018-04-16T19:39:09.183Z,14.90
2018-04-16T19:41:42.337Z,14.70
2018-04-16T19:44:08.602Z,14.70
2018-04-16T19:46:35.672Z,14.60
2018-04-16T19:49:08.665Z,14.60
2018-04-16T19:51:35.056Z,14.60
2018-04-16T19:54:01.334Z,14.50
2018-04-16T19:56:48.428Z,14.50
2018-04-16T19:59:15.403Z,14.40
2018-04-16T20:01:42.089Z,14.40
2018-04-16T20:04:08.451Z,14.30
2018-04-16T20:06:34.983Z,14.30
2018-04-16T20:09:01.977Z,14.30
2018-04-16T20:11:28.479Z,14.20
2018-04-16T20:13:54.724Z,14.20
2018-04-16T20:16:21.122Z,14.20
2018-04-16T20:18:48.076Z,14.10
2018-04-16T20:21:15.032Z,14.00
2018-04-16T20:23:41.288Z,14.00
2018-04-16T20:26:07.527Z,14.00
2018-04-16T20:28:33.891Z,14.00
2018-04-16T20:31:00.165Z,13.90
2018-04-16T20:33:26.476Z,13.90
2018-04-16T20:35:52.743Z,13.80
2018-04-16T20:38:18.978Z,13.70
2018-04-16T20:40:45.993Z,13.50
2018-04-16T20:43:12.254Z,13.50
2018-04-16T20:45:38.549Z,13.50
2018-04-16T20:48:04.863Z,13.50
2018-04-16T20:50:31.160Z,13.40
2018-04-16T20:52:57.401Z,13.40
2018-04-16T20:55:24.342Z,13.30
2018-04-16T20:57:51.756Z,13.30
2018-04-16T21:00:17.966Z,13.30
2018-04-16T21:02:44.221Z,13.30
2018-04-16T21:05:10.456Z,13.30
2018-04-16T21:07:36.691Z,13.20
2018-04-16T21:10:02.965Z,13.10
2018-04-16T21:12:29.201Z,13.10
2018-04-16T21:14:55.430Z,13.10
2018-04-16T21:17:21.648Z,13.10
2018-04-16T21:19:47.901Z,13.00
2018-04-16T21:22:14.152Z,13.00
2018-04-16T21:24:40.375Z,12.90
2018-04-16T21:27:06.618Z,12.90
2018-04-16T21:29:32.887Z,12.80
2018-04-16T21:31:59.077Z,12.80
2018-04-16T21:34:26.045Z,12.80
2018-04-16T21:36:52.341Z,12.80
2018-04-16T21:39:18.618Z,12.60
2018-04-16T21:41:44.992Z,12.60
2018-04-16T21:44:11.252Z,12.60
2018-04-16T21:46:38.278Z,12.50
2018-04-16T21:49:04.549Z,12.60
2018-04-16T21:51:31.092Z,12.50
2018-04-16T21:53:57.557Z,12.50
2018-04-16T21:56:23.816Z,12.50
2018-04-16T21:58:50.850Z,12.40
2018-04-16T22:01:17.129Z,12.30
2018-04-16T22:03:43.341Z,12.30
2018-04-16T22:06:17.405Z,12.10
2018-04-16T22:08:43.677Z,12.10
2018-04-16T22:11:10.687Z,12.10
2018-04-16T22:13:37.043Z,12.00
2018-04-16T22:16:03.364Z,12.00
2018-04-16T22:18:29.602Z,11.80
2018-04-16T22:20:55.918Z,11.70
2018-04-16T22:23:22.953Z,11.60
2018-04-16T22:25:49.160Z,11.60
2018-04-16T22:28:15.452Z,11.60
2018-04-16T22:30:42.415Z,11.70
2018-04-16T22:33:08.610Z,11.60
2018-04-16T22:35:35.116Z,11.60
2018-04-16T22:38:01.370Z,11.60
2018-04-16T22:40:28.459Z,11.60
2018-04-16T22:42:54.876Z,11.50
2018-04-16T22:45:21.096Z,11.50
2018-04-16T22:47:47.333Z,11.50
2018-04-16T22:50:13.598Z,11.60
2018-04-16T22:52:39.807Z,11.40
2018-04-16T22:55:06.065Z,11.40
2018-04-16T22:57:32.314Z,11.40
2018-04-16T22:59:59.308Z,11.40
2018-04-16T23:02:25.551Z,11.30
2018-04-16T23:04:51.737Z,11.30
2018-04-16T23:07:17.997Z,11.30
2018-04-16T23:09:44.207Z,11.30
2018-04-16T23:12:10.561Z,11.30
2018-04-16T23:14:37.672Z,11.20
2018-04-16T23:17:03.950Z,11.20
2018-04-16T23:19:30.212Z,11.20
2018-04-16T23:21:56.461Z,11.00
2018-04-16T23:24:22.856Z,10.90
2018-04-16T23:26:49.072Z,10.90
2018-04-16T23:29:15.311Z,10.90
2018-04-16T23:31:41.535Z,10.90
2018-04-16T23:34:08.493Z,10.90
2018-04-16T23:36:34.837Z,10.90
2018-04-16T23:39:01.093Z,10.90
2018-04-16T23:41:27.331Z,10.80
2018-04-16T23:43:53.571Z,10.70
2018-04-16T23:46:19.781Z,10.60
2018-04-16T23:48:46.003Z,10.50
2018-04-16T23:51:12.223Z,10.60
2018-04-16T23:53:38.464Z,10.50
2018-04-16T23:56:04.696Z,10.50
2018-04-16T23:58:30.917Z,10.30
